Airport View

Enter AWOS ICAO identifier for current METAR.

ex. KFNL

KOQT 051153Z AUTO 00000KT 8SM CLR 20/18 A3007 RMK AO2 SLP168 70026 T02000183 10206 20189 53008

5 Aug 2020 12:57

Other Area AWOS: KTYS - KDKX - KJAU - KRKW

TAF KTYS 051120Z 0512/0612 03003KT P6SM SCT080 FM051800 29004KT P6SM VCTS SCT080CB FM060200 03004KT P6SM FEW070 FM061100 00000KT 4SM BR BKN045